Time;durP1;ratioP1;P1;durP2;ratioP2;P2;SDS_P1;SDS_P2;PMS_P1;PMS_P2;Temp;Humidity;BMP_temperature;BMP_pressure;BME280_temperature;BME280_humidity;BME280_pressure;Samples;Min_cycle;Max_cycle;Signal;HPM_P1;HPM_P2
2022/12/02 00:00:04;;;;;;;;;;;9.70;99.90;;;;;;4981243;28;19922;-72
2022/12/02 00:02:33;;;;;;;;;;;9.70;99.90;;;;;;4995290;28;19910;-74
2022/12/02 00:05:14;;;;;;;;;;;9.90;99.90;;;;;;4977573;28;19921;-73
2022/12/02 00:07:41;;;;;;;;;;;9.90;99.90;;;;;;4975182;28;19979;-73
2022/12/02 00:10:18;;;;;;;;;;;10.10;99.90;;;;;;4976601;28;20065;-73
2022/12/02 00:12:44;;;;;;;;;;;10.10;99.90;;;;;;4974528;28;19910;-75
2022/12/02 00:15:32;;;;;;;;;;;10.10;99.90;;;;;;4975250;28;20040;-72
2022/12/02 00:17:58;;;;;;;;;;;10.10;99.90;;;;;;4973388;28;19925;-71
2022/12/02 00:20:23;;;;;;;;;;;10.20;99.90;;;;;;4977785;28;19909;-74
2022/12/02 00:22:49;;;;;;;;;;;10.20;99.90;;;;;;4975668;28;19968;-74
2022/12/02 00:25:14;;;;;;;;;;;10.20;99.90;;;;;;4976042;28;19927;-72
2022/12/02 00:27:40;;;;;;;;;;;10.20;99.90;;;;;;4975809;28;20004;-73
2022/12/02 00:30:06;;;;;;;;;;;10.30;99.90;;;;;;4976603;28;19990;-72
2022/12/02 00:32:31;;;;;;;;;;;10.30;99.90;;;;;;4991599;28;20012;-73
2022/12/02 00:34:57;;;;;;;;;;;10.40;99.90;;;;;;4973127;28;19974;-73
2022/12/02 00:37:22;;;;;;;;;;;10.50;99.90;;;;;;4975146;28;20403;-73
2022/12/02 00:39:48;;;;;;;;;;;10.50;99.90;;;;;;4974041;28;20701;-73
2022/12/02 00:42:13;;;;;;;;;;;10.50;99.90;;;;;;4975396;28;20424;-73
2022/12/02 00:47:22;;;;;;;;;;;10.70;99.90;;;;;;4974967;28;20406;-73
2022/12/02 00:49:48;;;;;;;;;;;10.60;99.90;;;;;;4975164;28;19979;-74
2022/12/02 00:52:13;;;;;;;;;;;10.60;99.90;;;;;;4975141;28;19920;-73
2022/12/02 00:54:39;;;;;;;;;;;10.60;99.90;;;;;;4975308;28;19921;-73
2022/12/02 00:57:05;;;;;;;;;;;10.60;99.90;;;;;;4977191;28;19953;-72
2022/12/02 00:59:31;;;;;;;;;;;10.70;99.90;;;;;;4980084;28;20350;-72
2022/12/02 01:01:56;;;;;;;;;;;10.80;99.90;;;;;;4975068;28;20149;-74
2022/12/02 01:04:22;;;;;;;;;;;10.80;99.90;;;;;;4977055;28;20457;-73
2022/12/02 01:06:47;;;;;;;;;;;10.80;99.90;;;;;;4979377;28;19910;-75
2022/12/02 01:09:13;;;;;;;;;;;10.90;99.90;;;;;;4977745;28;20621;-76
2022/12/02 01:11:38;;;;;;;;;;;11.00;99.90;;;;;;4991760;28;19980;-72
2022/12/02 01:14:04;;;;;;;;;;;11.00;99.90;;;;;;4971166;28;19936;-75
2022/12/02 01:16:29;;;;;;;;;;;11.00;99.90;;;;;;4991673;28;19918;-74
2022/12/02 01:18:55;;;;;;;;;;;11.10;99.90;;;;;;4977214;28;19992;-73
2022/12/02 01:21:22;;;;;;;;;;;11.10;99.90;;;;;;4979091;28;20418;-74
2022/12/02 01:23:47;;;;;;;;;;;11.10;99.90;;;;;;4975544;28;19910;-73
2022/12/02 01:26:13;;;;;;;;;;;11.10;99.90;;;;;;4976225;28;19925;-73
2022/12/02 01:28:38;;;;;;;;;;;11.10;99.90;;;;;;4976245;28;19914;-72
2022/12/02 01:31:04;;;;;;;;;;;11.10;99.90;;;;;;4989760;28;19914;-72
2022/12/02 01:33:29;;;;;;;;;;;11.00;99.90;;;;;;4995873;28;19976;-71
2022/12/02 01:35:55;;;;;;;;;;;11.10;99.90;;;;;;4993010;28;19998;-73
2022/12/02 01:38:20;;;;;;;;;;;11.30;99.90;;;;;;4985361;28;19980;-72
2022/12/02 01:40:46;;;;;;;;;;;11.20;99.90;;;;;;4979598;28;20030;-74
2022/12/02 01:43:11;;;;;;;;;;;11.30;99.90;;;;;;4980244;28;19993;-73
2022/12/02 01:45:37;;;;;;;;;;;11.30;99.90;;;;;;4974764;28;20404;-73
2022/12/02 01:48:03;;;;;;;;;;;11.20;99.90;;;;;;4976296;28;19915;-73
2022/12/02 01:50:29;;;;;;;;;;;11.40;99.90;;;;;;4974668;28;19918;-72
2022/12/02 01:52:55;;;;;;;;;;;11.30;99.90;;;;;;4975997;28;20483;-73
2022/12/02 01:55:21;;;;;;;;;;;11.20;99.90;;;;;;4975691;28;19910;-73
2022/12/02 01:57:47;;;;;;;;;;;11.30;99.90;;;;;;4973232;28;20487;-72
2022/12/02 02:00:13;;;;;;;;;;;11.30;99.90;;;;;;4973583;28;20095;-73
2022/12/02 02:02:39;;;;;;;;;;;11.30;99.90;;;;;;4973813;28;19911;-74
2022/12/02 02:05:10;;;;;;;;;;;11.30;99.90;;;;;;4972316;28;19910;-73
2022/12/02 02:07:36;;;;;;;;;;;11.30;99.90;;;;;;4970383;28;19960;-72
2022/12/02 02:10:03;;;;;;;;;;;11.20;99.90;;;;;;4974055;28;19925;-73
2022/12/02 02:12:29;;;;;;;;;;;11.20;99.90;;;;;;4977378;28;20202;-74
2022/12/02 02:14:55;;;;;;;;;;;11.20;99.90;;;;;;4980402;28;19913;-73
2022/12/02 02:17:21;;;;;;;;;;;11.20;99.90;;;;;;4977143;28;19958;-74
2022/12/02 02:19:47;;;;;;;;;;;11.10;99.90;;;;;;4978152;28;19921;-73
2022/12/02 02:22:15;;;;;;;;;;;11.10;99.90;;;;;;4985975;28;19929;-73
2022/12/02 02:24:41;;;;;;;;;;;11.10;99.90;;;;;;4986134;28;19909;-72
2022/12/02 02:27:06;;;;;;;;;;;11.00;99.90;;;;;;5001126;28;19993;-73
2022/12/02 02:29:32;;;;;;;;;;;11.00;99.90;;;;;;4977133;28;19914;-75
2022/12/02 02:31:58;;;;;;;;;;;11.00;99.90;;;;;;4974634;28;19933;-74
2022/12/02 02:34:24;;;;;;;;;;;10.90;99.90;;;;;;4975184;28;19921;-73
2022/12/02 02:36:49;;;;;;;;;;;11.00;99.90;;;;;;4975516;28;19916;-73
2022/12/02 02:39:15;;;;;;;;;;;10.90;99.90;;;;;;4977496;28;19909;-73
2022/12/02 02:41:40;;;;;;;;;;;10.90;99.90;;;;;;4990330;28;20409;-74
2022/12/02 02:44:06;;;;;;;;;;;10.90;99.90;;;;;;4973588;28;19921;-74
2022/12/02 02:46:31;;;;;;;;;;;10.90;99.90;;;;;;4972798;28;20344;-73
2022/12/02 02:48:57;;;;;;;;;;;10.90;99.90;;;;;;4977209;28;19991;-73
2022/12/02 02:51:23;;;;;;;;;;;10.90;99.90;;;;;;4969152;28;19968;-73
2022/12/02 02:53:49;;;;;;;;;;;10.90;99.90;;;;;;4976145;28;19922;-72
2022/12/02 02:56:14;;;;;;;;;;;10.80;99.90;;;;;;4974535;28;20124;-74
2022/12/02 02:58:40;;;;;;;;;;;10.70;99.90;;;;;;4972966;28;19936;-72
2022/12/02 03:01:18;;;;;;;;;;;10.60;99.90;;;;;;4973801;28;19918;-72
2022/12/02 03:03:46;;;;;;;;;;;10.50;99.90;;;;;;4973642;28;19941;-72
2022/12/02 03:06:12;;;;;;;;;;;10.40;99.90;;;;;;4971851;28;19948;-72
2022/12/02 03:08:39;;;;;;;;;;;10.30;99.90;;;;;;4971935;28;19936;-73
2022/12/02 03:11:05;;;;;;;;;;;10.30;99.90;;;;;;4973644;28;19941;-73
2022/12/02 03:13:33;;;;;;;;;;;10.30;99.90;;;;;;4971882;28;19951;-73
2022/12/02 03:16:00;;;;;;;;;;;10.30;99.90;;;;;;4971406;28;19910;-73
2022/12/02 03:18:25;;;;;;;;;;;10.40;99.90;;;;;;4973596;28;19964;-73
2022/12/02 03:20:51;;;;;;;;;;;10.50;99.90;;;;;;4973089;28;19972;-73
2022/12/02 03:23:17;;;;;;;;;;;10.50;99.90;;;;;;4977561;28;19910;-73
2022/12/02 03:25:42;;;;;;;;;;;10.40;99.90;;;;;;4974734;28;19940;-72
2022/12/02 03:28:10;;;;;;;;;;;10.20;99.90;;;;;;4976105;28;20392;-73
2022/12/02 03:30:36;;;;;;;;;;;10.30;99.90;;;;;;4972625;28;19910;-72
2022/12/02 03:33:02;;;;;;;;;;;10.20;99.90;;;;;;4974553;28;20299;-73
2022/12/02 03:35:27;;;;;;;;;;;10.10;99.90;;;;;;4976666;28;19925;-73
2022/12/02 03:37:53;;;;;;;;;;;10.00;99.90;;;;;;4975561;28;21068;-74
2022/12/02 03:40:18;;;;;;;;;;;10.00;99.90;;;;;;4976071;28;20159;-73
2022/12/02 03:42:44;;;;;;;;;;;10.10;99.90;;;;;;4979832;28;20427;-72
2022/12/02 03:45:10;;;;;;;;;;;10.00;99.90;;;;;;4978440;28;19910;-72
2022/12/02 03:47:36;;;;;;;;;;;9.90;99.90;;;;;;4994204;28;19922;-73
2022/12/02 03:50:02;;;;;;;;;;;9.90;99.90;;;;;;4977829;28;19980;-73
2022/12/02 03:52:28;;;;;;;;;;;10.00;99.90;;;;;;4978592;28;19920;-72
2022/12/02 03:54:53;;;;;;;;;;;9.90;99.90;;;;;;4976272;28;19937;-73
2022/12/02 03:57:19;;;;;;;;;;;9.90;99.90;;;;;;4978688;28;19910;-73
2022/12/02 03:59:44;;;;;;;;;;;10.00;99.90;;;;;;4980777;28;19913;-74
2022/12/02 04:02:10;;;;;;;;;;;9.90;99.90;;;;;;4978692;28;19950;-73
2022/12/02 04:04:35;;;;;;;;;;;9.90;99.90;;;;;;4977489;28;20273;-73
2022/12/02 04:07:01;;;;;;;;;;;9.90;99.90;;;;;;4980062;28;19917;-72
2022/12/02 04:09:26;;;;;;;;;;;9.80;99.90;;;;;;4980159;28;19918;-72
2022/12/02 04:11:52;;;;;;;;;;;9.90;99.90;;;;;;4979003;28;19909;-73
2022/12/02 04:14:17;;;;;;;;;;;9.80;99.90;;;;;;4980977;28;19914;-73
2022/12/02 04:16:43;;;;;;;;;;;9.70;99.90;;;;;;4979435;28;19960;-72
2022/12/02 04:19:08;;;;;;;;;;;9.70;99.90;;;;;;4976523;28;20080;-73
2022/12/02 04:21:34;;;;;;;;;;;9.70;99.90;;;;;;4984693;28;19921;-74
2022/12/02 04:23:59;;;;;;;;;;;9.60;99.90;;;;;;4984155;28;19988;-73
2022/12/02 04:26:25;;;;;;;;;;;9.60;99.90;;;;;;4978112;28;19920;-75
2022/12/02 04:28:50;;;;;;;;;;;9.50;99.90;;;;;;4978559;28;19921;-73
2022/12/02 04:31:16;;;;;;;;;;;9.50;99.90;;;;;;4981950;28;20005;-73
2022/12/02 04:33:41;;;;;;;;;;;9.50;99.90;;;;;;4986357;28;19917;-73
2022/12/02 04:36:07;;;;;;;;;;;9.40;99.90;;;;;;4986340;28;19937;-73
2022/12/02 04:38:32;;;;;;;;;;;9.40;99.90;;;;;;4983118;28;20379;-74
2022/12/02 04:40:58;;;;;;;;;;;9.50;99.90;;;;;;4981389;28;19911;-73
2022/12/02 04:43:23;;;;;;;;;;;9.30;99.90;;;;;;4984716;28;20381;-73
2022/12/02 04:45:49;;;;;;;;;;;9.20;99.90;;;;;;4999984;28;19929;-75
2022/12/02 04:48:14;;;;;;;;;;;9.20;99.90;;;;;;4986802;28;19917;-75
2022/12/02 04:50:39;;;;;;;;;;;9.00;99.90;;;;;;4986902;28;19941;-73
2022/12/02 04:53:05;;;;;;;;;;;9.00;99.90;;;;;;4981172;28;19913;-71
2022/12/02 04:55:30;;;;;;;;;;;8.80;99.90;;;;;;4977233;28;19949;-72
2022/12/02 04:57:56;;;;;;;;;;;8.70;99.90;;;;;;4974781;28;20227;-74
2022/12/02 05:00:21;;;;;;;;;;;8.70;99.90;;;;;;4974311;28;19929;-72
2022/12/02 05:02:47;;;;;;;;;;;8.50;99.90;;;;;;4970809;28;20004;-72
2022/12/02 05:05:12;;;;;;;;;;;8.20;99.90;;;;;;4970462;28;20013;-73
2022/12/02 05:07:38;;;;;;;;;;;8.00;99.90;;;;;;4973854;28;19981;-73
2022/12/02 05:10:04;;;;;;;;;;;7.80;99.90;;;;;;4974807;28;19910;-73
2022/12/02 05:12:30;;;;;;;;;;;7.50;99.90;;;;;;4974429;28;20016;-72
2022/12/02 05:14:56;;;;;;;;;;;7.40;99.90;;;;;;4976557;28;20068;-73
2022/12/02 05:17:21;;;;;;;;;;;7.30;99.90;;;;;;4975498;28;20288;-74
2022/12/02 05:19:47;;;;;;;;;;;7.20;99.90;;;;;;4972469;28;19914;-73
2022/12/02 05:22:12;;;;;;;;;;;7.00;99.90;;;;;;4974239;28;19964;-73
2022/12/02 05:24:39;;;;;;;;;;;6.90;99.90;;;;;;4976373;28;19910;-73
2022/12/02 05:27:04;;;;;;;;;;;6.70;99.90;;;;;;4976761;28;19965;-74
2022/12/02 05:29:30;;;;;;;;;;;6.60;99.90;;;;;;4972816;28;19922;-75
2022/12/02 05:31:55;;;;;;;;;;;6.40;99.90;;;;;;4978573;28;19913;-73
2022/12/02 05:34:21;;;;;;;;;;;6.40;99.90;;;;;;4978172;28;19914;-73
2022/12/02 05:36:46;;;;;;;;;;;6.40;99.90;;;;;;4983681;28;19977;-74
2022/12/02 05:39:12;;;;;;;;;;;6.30;99.90;;;;;;4984066;28;19921;-73
2022/12/02 05:41:37;;;;;;;;;;;6.20;99.90;;;;;;4984928;28;19921;-74
2022/12/02 05:44:18;;;;;;;;;;;6.20;99.90;;;;;;4973108;28;19914;-74
2022/12/02 05:46:43;;;;;;;;;;;6.20;99.90;;;;;;4974781;28;20005;-74
2022/12/02 05:49:20;;;;;;;;;;;6.20;99.90;;;;;;4973776;28;20013;-74
2022/12/02 05:51:47;;;;;;;;;;;6.00;99.90;;;;;;4975443;28;20289;-74
2022/12/02 05:54:17;;;;;;;;;;;6.00;99.90;;;;;;4974025;28;19911;-73
2022/12/02 05:56:42;;;;;;;;;;;6.00;99.90;;;;;;4975727;28;20022;-74
2022/12/02 05:59:12;;;;;;;;;;;5.90;99.90;;;;;;4990958;28;19982;-74
2022/12/02 06:01:38;;;;;;;;;;;5.80;99.90;;;;;;4977777;28;19922;-73
2022/12/02 06:04:04;;;;;;;;;;;5.80;99.90;;;;;;4976575;28;19911;-74
2022/12/02 06:06:31;;;;;;;;;;;5.90;99.90;;;;;;4976056;28;19910;-75
2022/12/02 06:08:58;;;;;;;;;;;5.80;99.90;;;;;;4975353;28;19921;-73
2022/12/02 06:11:33;;;;;;;;;;;5.80;99.90;;;;;;4974899;28;19964;-72
2022/12/02 06:14:01;;;;;;;;;;;5.80;99.90;;;;;;4972738;28;19968;-74
2022/12/02 06:16:28;;;;;;;;;;;5.80;99.90;;;;;;4971174;28;19918;-74
2022/12/02 06:18:53;;;;;;;;;;;5.80;99.90;;;;;;4972822;28;20283;-74
2022/12/02 06:21:20;;;;;;;;;;;5.70;99.90;;;;;;4971202;28;19910;-74
2022/12/02 06:23:47;;;;;;;;;;;5.80;99.90;;;;;;4970537;28;19914;-75
2022/12/02 06:26:13;;;;;;;;;;;5.80;99.90;;;;;;4972562;28;19914;-74
2022/12/02 06:28:40;;;;;;;;;;;5.90;99.90;;;;;;4972258;28;19921;-75
2022/12/02 06:31:30;;;;;;;;;;;6.00;99.90;;;;;;4972033;28;19940;-74
2022/12/02 06:33:57;;;;;;;;;;;5.90;99.90;;;;;;4969749;28;19917;-74
2022/12/02 06:36:24;;;;;;;;;;;6.00;99.90;;;;;;4970594;28;19961;-75
2022/12/02 06:38:53;;;;;;;;;;;6.00;99.90;;;;;;4971830;28;20001;-74
2022/12/02 06:41:28;;;;;;;;;;;5.90;99.90;;;;;;4974473;28;19910;-74
2022/12/02 06:46:42;;;;;;;;;;;5.90;99.90;;;;;;4973531;28;19965;-74
2022/12/02 06:49:13;;;;;;;;;;;6.00;99.90;;;;;;4990711;28;19918;-73
2022/12/02 06:51:38;;;;;;;;;;;5.90;99.90;;;;;;4988888;28;19953;-75
2022/12/02 06:54:10;;;;;;;;;;;5.90;99.90;;;;;;4972178;28;19916;-75
2022/12/02 06:56:35;;;;;;;;;;;6.00;99.90;;;;;;4973717;28;20367;-74
2022/12/02 06:59:04;;;;;;;;;;;6.00;99.90;;;;;;4973358;28;19920;-74
2022/12/02 07:01:32;;;;;;;;;;;5.90;99.90;;;;;;4971140;28;19918;-73
2022/12/02 07:04:00;;;;;;;;;;;5.90;99.90;;;;;;4972704;28;19953;-74
2022/12/02 07:06:27;;;;;;;;;;;6.00;99.90;;;;;;4971355;28;20323;-74
2022/12/02 07:08:56;;;;;;;;;;;6.10;99.90;;;;;;4969703;28;20020;-74
2022/12/02 07:11:49;;;;;;;;;;;6.10;99.90;;;;;;4972580;28;19925;-74
2022/12/02 07:14:43;;;;;;;;;;;6.20;99.90;;;;;;4971320;28;19939;-73
2022/12/02 07:17:19;;;;;;;;;;;6.10;99.90;;;;;;4959906;28;19945;-74
2022/12/02 07:19:47;;;;;;;;;;;6.20;99.90;;;;;;4972578;28;20379;-74
2022/12/02 07:22:14;;;;;;;;;;;6.20;99.90;;;;;;4973932;28;19990;-73
2022/12/02 07:24:40;;;;;;;;;;;6.30;99.90;;;;;;4970882;28;19909;-74
2022/12/02 07:27:12;;;;;;;;;;;6.20;99.90;;;;;;4972004;28;20359;-74
2022/12/02 07:29:38;;;;;;;;;;;6.20;99.90;;;;;;4970729;28;19960;-74
2022/12/02 07:32:03;;;;;;;;;;;6.20;99.90;;;;;;4972047;28;19914;-74
2022/12/02 07:34:29;;;;;;;;;;;6.20;99.90;;;;;;4970141;28;19916;-75
2022/12/02 07:36:54;;;;;;;;;;;6.30;99.90;;;;;;4970130;28;20666;-74
2022/12/02 07:39:20;;;;;;;;;;;6.30;99.90;;;;;;4970739;28;19910;-75
2022/12/02 07:41:46;;;;;;;;;;;6.40;99.90;;;;;;4973519;28;19918;-74
2022/12/02 07:44:11;;;;;;;;;;;6.50;99.90;;;;;;4973642;28;19945;-74
2022/12/02 07:46:37;;;;;;;;;;;6.50;99.90;;;;;;4973382;28;20000;-74
2022/12/02 07:49:02;;;;;;;;;;;6.20;99.90;;;;;;4974061;28;19989;-74
2022/12/02 07:51:28;;;;;;;;;;;6.10;99.90;;;;;;4970885;28;19980;-73
2022/12/02 07:53:53;;;;;;;;;;;5.90;99.90;;;;;;4973732;28;19921;-73
2022/12/02 07:56:19;;;;;;;;;;;5.80;99.90;;;;;;4972707;28;19914;-74
2022/12/02 07:58:44;;;;;;;;;;;5.80;99.90;;;;;;4974330;28;20021;-73
2022/12/02 08:01:10;;;;;;;;;;;5.70;99.90;;;;;;4973514;28;19961;-74
2022/12/02 08:03:35;;;;;;;;;;;5.70;99.90;;;;;;4977205;28;19918;-73
2022/12/02 08:06:01;;;;;;;;;;;5.70;99.90;;;;;;4975405;28;19918;-74
2022/12/02 08:08:26;;;;;;;;;;;5.70;99.90;;;;;;4978008;28;20005;-73
2022/12/02 08:10:52;;;;;;;;;;;5.50;99.90;;;;;;4971182;28;20008;-73
2022/12/02 08:13:17;;;;;;;;;;;5.40;99.90;;;;;;4987054;28;19913;-74
2022/12/02 08:15:43;;;;;;;;;;;5.40;99.90;;;;;;4970240;28;20691;-74
2022/12/02 08:18:08;;;;;;;;;;;5.40;99.90;;;;;;4973851;28;20439;-74
2022/12/02 08:20:34;;;;;;;;;;;5.40;99.90;;;;;;4972944;28;19910;-74
2022/12/02 08:22:59;;;;;;;;;;;5.30;99.90;;;;;;4969996;28;19913;-74
2022/12/02 08:25:25;;;;;;;;;;;5.40;99.90;;;;;;4973092;28;19918;-74
2022/12/02 08:27:50;;;;;;;;;;;5.30;99.90;;;;;;4971320;28;20391;-73
2022/12/02 08:30:16;;;;;;;;;;;5.30;99.90;;;;;;4972175;28;19950;-74
2022/12/02 08:32:42;;;;;;;;;;;5.10;99.90;;;;;;4971942;28;19940;-73
2022/12/02 08:35:08;;;;;;;;;;;4.90;99.90;;;;;;4971839;28;20351;-74
2022/12/02 08:37:33;;;;;;;;;;;4.90;99.90;;;;;;4971212;28;20303;-73
2022/12/02 08:39:58;;;;;;;;;;;4.80;99.90;;;;;;4971579;28;19973;-73
2022/12/02 08:42:24;;;;;;;;;;;4.80;99.90;;;;;;4974754;28;19921;-73
2022/12/02 08:44:49;;;;;;;;;;;4.80;99.90;;;;;;4978470;28;20381;-74
2022/12/02 08:47:15;;;;;;;;;;;4.70;99.90;;;;;;4979914;28;19936;-73
2022/12/02 08:49:41;;;;;;;;;;;4.80;99.90;;;;;;4979235;28;19910;-73
2022/12/02 08:52:06;;;;;;;;;;;4.80;99.90;;;;;;4987288;28;20387;-73
2022/12/02 08:54:32;;;;;;;;;;;4.70;99.90;;;;;;4977464;28;19917;-74
2022/12/02 08:56:59;;;;;;;;;;;4.70;99.90;;;;;;4978400;28;19914;-73
2022/12/02 08:59:25;;;;;;;;;;;4.80;99.90;;;;;;4976678;28;19917;-74
2022/12/02 09:01:50;;;;;;;;;;;4.80;99.90;;;;;;4978745;28;19937;-74
2022/12/02 09:04:16;;;;;;;;;;;4.70;99.90;;;;;;4979365;28;19961;-74
2022/12/02 09:06:41;;;;;;;;;;;4.70;99.90;;;;;;4991812;28;20276;-73
2022/12/02 09:09:07;;;;;;;;;;;4.70;99.90;;;;;;4987971;28;20161;-74
2022/12/02 09:11:33;;;;;;;;;;;4.80;99.90;;;;;;4973795;28;19921;-73
2022/12/02 09:13:59;;;;;;;;;;;4.70;99.90;;;;;;4974259;28;20095;-73
2022/12/02 09:16:24;;;;;;;;;;;4.60;99.90;;;;;;4973781;28;19921;-73
2022/12/02 09:18:50;;;;;;;;;;;4.60;99.90;;;;;;4976786;28;19980;-73
2022/12/02 09:21:15;;;;;;;;;;;4.70;99.90;;;;;;4972119;28;19914;-74
2022/12/02 09:23:41;;;;;;;;;;;4.70;99.90;;;;;;4972719;28;19910;-73
2022/12/02 09:26:06;;;;;;;;;;;4.60;99.90;;;;;;4972338;28;20653;-73
2022/12/02 09:28:32;;;;;;;;;;;4.60;99.90;;;;;;4971853;28;19921;-73
2022/12/02 09:30:57;;;;;;;;;;;4.60;99.90;;;;;;4986888;28;20331;-73
2022/12/02 09:33:23;;;;;;;;;;;4.60;99.90;;;;;;4972850;28;19910;-73
2022/12/02 09:35:50;;;;;;;;;;;4.70;99.90;;;;;;4968494;28;19918;-72
2022/12/02 09:38:15;;;;;;;;;;;4.70;99.90;;;;;;4973194;28;19918;-73
2022/12/02 09:40:41;;;;;;;;;;;4.60;99.90;;;;;;4969115;28;19918;-72
2022/12/02 09:43:07;;;;;;;;;;;4.70;99.90;;;;;;4965748;28;19921;-73
2022/12/02 09:45:32;;;;;;;;;;;4.70;99.90;;;;;;4971147;28;20135;-74
2022/12/02 09:47:58;;;;;;;;;;;4.70;99.90;;;;;;4970159;28;20457;-72
2022/12/02 09:50:24;;;;;;;;;;;4.70;99.90;;;;;;4974679;28;19996;-73
2022/12/02 09:52:50;;;;;;;;;;;4.70;99.90;;;;;;4970295;28;20096;-73
2022/12/02 09:55:17;;;;;;;;;;;4.70;99.90;;;;;;4967761;28;20017;-73
2022/12/02 09:57:43;;;;;;;;;;;4.70;99.90;;;;;;4973458;28;19924;-75
2022/12/02 10:00:19;;;;;;;;;;;4.70;99.90;;;;;;4988595;28;19917;-75
2022/12/02 10:02:52;;;;;;;;;;;4.80;99.90;;;;;;4973459;28;19914;-75
2022/12/02 10:05:22;;;;;;;;;;;4.90;99.90;;;;;;4972583;28;19922;-75
2022/12/02 10:07:49;;;;;;;;;;;4.70;99.90;;;;;;4975763;28;19964;-73
2022/12/02 10:10:18;;;;;;;;;;;4.80;99.90;;;;;;4975545;28;20435;-77
2022/12/02 10:12:44;;;;;;;;;;;4.80;99.90;;;;;;4976263;28;20673;-75
2022/12/02 10:15:14;;;;;;;;;;;4.80;99.90;;;;;;4974778;28;19980;-74
2022/12/02 10:17:41;;;;;;;;;;;4.70;99.90;;;;;;4972887;28;20381;-74
2022/12/02 10:20:09;;;;;;;;;;;4.70;99.90;;;;;;4973011;28;19910;-75
2022/12/02 10:22:55;;;;;;;;;;;4.70;99.90;;;;;;4968723;28;20238;-75
2022/12/02 10:25:28;;;;;;;;;;;4.80;99.90;;;;;;4972540;28;20044;-74
2022/12/02 10:27:54;;;;;;;;;;;4.80;99.90;;;;;;4966969;28;19914;-76
2022/12/02 10:30:24;;;;;;;;;;;4.80;99.90;;;;;;4967950;28;19951;-76
2022/12/02 10:33:04;;;;;;;;;;;4.90;99.90;;;;;;5002701;28;20050;-78
2022/12/02 10:35:42;;;;;;;;;;;4.90;99.90;;;;;;4973324;28;20041;-76
2022/12/02 10:38:31;;;;;;;;;;;4.90;99.90;;;;;;4973142;28;19953;-75
2022/12/02 10:41:16;;;;;;;;;;;4.90;99.90;;;;;;4964818;28;19925;-76
2022/12/02 10:43:51;;;;;;;;;;;4.90;99.90;;;;;;4971446;28;20346;-77
2022/12/02 10:46:17;;;;;;;;;;;4.90;99.90;;;;;;4975107;28;19933;-77
2022/12/02 10:48:43;;;;;;;;;;;5.00;99.90;;;;;;4973476;28;19926;-75
2022/12/02 10:51:12;;;;;;;;;;;5.00;99.90;;;;;;4974015;28;19910;-77
2022/12/02 10:53:38;;;;;;;;;;;4.80;99.90;;;;;;4970576;28;19910;-75
2022/12/02 10:56:04;;;;;;;;;;;4.80;99.90;;;;;;4973439;28;19913;-75
2022/12/02 10:58:29;;;;;;;;;;;4.80;99.90;;;;;;4972703;28;19911;-74
2022/12/02 11:00:56;;;;;;;;;;;4.90;99.90;;;;;;4973696;28;19924;-74
2022/12/02 11:03:22;;;;;;;;;;;4.80;99.90;;;;;;4972085;28;19917;-75
2022/12/02 11:05:48;;;;;;;;;;;4.90;99.90;;;;;;5003138;28;20437;-75
2022/12/02 11:08:19;;;;;;;;;;;5.00;99.90;;;;;;4968793;28;19970;-75
2022/12/02 11:10:46;;;;;;;;;;;5.10;99.90;;;;;;4967393;28;19957;-74
2022/12/02 11:13:12;;;;;;;;;;;5.30;99.90;;;;;;4970289;28;19910;-74
2022/12/02 11:15:37;;;;;;;;;;;5.30;99.90;;;;;;4971422;28;20406;-73
2022/12/02 11:18:04;;;;;;;;;;;5.30;99.90;;;;;;4974234;28;19926;-74
2022/12/02 11:20:34;;;;;;;;;;;5.10;99.90;;;;;;4975065;28;19922;-76
2022/12/02 11:22:59;;;;;;;;;;;5.00;99.90;;;;;;4979708;28;20042;-76
2022/12/02 11:25:48;;;;;;;;;;;4.90;99.90;;;;;;4975812;28;19914;-74
2022/12/02 11:28:14;;;;;;;;;;;4.80;99.90;;;;;;4968262;28;19914;-74
2022/12/02 11:30:39;;;;;;;;;;;4.80;99.90;;;;;;4975573;28;19964;-75
2022/12/02 11:33:09;;;;;;;;;;;4.80;99.90;;;;;;4971700;28;19917;-74
2022/12/02 11:35:53;;;;;;;;;;;4.80;99.90;;;;;;4972375;28;20100;-74
2022/12/02 11:38:21;;;;;;;;;;;4.80;99.90;;;;;;4973257;28;19910;-74
2022/12/02 11:40:47;;;;;;;;;;;4.80;99.90;;;;;;4974978;28;19914;-75
2022/12/02 11:43:31;;;;;;;;;;;4.80;99.90;;;;;;4975798;28;19918;-74
2022/12/02 11:45:57;;;;;;;;;;;4.80;99.90;;;;;;4977883;28;19913;-74
2022/12/02 11:48:22;;;;;;;;;;;4.80;99.90;;;;;;4974755;28;19979;-76
2022/12/02 11:50:48;;;;;;;;;;;4.80;99.90;;;;;;4979283;28;19918;-76
2022/12/02 11:53:15;;;;;;;;;;;4.80;99.90;;;;;;4972881;28;19945;-74
2022/12/02 11:55:43;;;;;;;;;;;4.80;99.90;;;;;;4974345;28;20287;-75
2022/12/02 11:58:28;;;;;;;;;;;4.80;99.90;;;;;;4973670;28;20442;-76
2022/12/02 12:01:02;;;;;;;;;;;4.80;99.90;;;;;;4976067;28;20130;-75
2022/12/02 12:03:27;;;;;;;;;;;4.70;99.90;;;;;;4972185;28;19914;-75
2022/12/02 12:06:02;;;;;;;;;;;4.50;99.90;;;;;;4976511;28;19972;-76
2022/12/02 12:08:28;;;;;;;;;;;4.60;99.90;;;;;;4979258;28;19913;-75
2022/12/02 12:11:29;;;;;;;;;;;4.60;99.90;;;;;;4981296;28;19910;-76
2022/12/02 12:14:12;;;;;;;;;;;4.60;99.90;;;;;;4927298;29;20516;-74
2022/12/02 12:16:41;;;;;;;;;;;4.40;99.90;;;;;;4969598;28;19957;-77
2022/12/02 12:19:10;;;;;;;;;;;4.50;99.90;;;;;;4974175;28;19924;-74
2022/12/02 12:21:41;;;;;;;;;;;4.40;99.90;;;;;;4974527;28;19914;-77
2022/12/02 12:24:24;;;;;;;;;;;4.50;99.90;;;;;;4971780;28;19914;-75
2022/12/02 12:26:53;;;;;;;;;;;4.50;99.90;;;;;;4975160;28;19998;-75
2022/12/02 12:29:20;;;;;;;;;;;4.50;99.90;;;;;;4974858;28;19928;-76
2022/12/02 12:31:45;;;;;;;;;;;4.40;99.90;;;;;;4990298;28;19964;-75
2022/12/02 12:34:11;;;;;;;;;;;4.40;99.90;;;;;;4976344;28;19952;-75
2022/12/02 12:36:37;;;;;;;;;;;4.40;99.90;;;;;;4976099;28;19956;-74
2022/12/02 12:39:04;;;;;;;;;;;4.50;99.90;;;;;;4973496;28;19923;-74
2022/12/02 12:41:29;;;;;;;;;;;4.50;99.90;;;;;;4972675;28;19917;-74
2022/12/02 12:43:55;;;;;;;;;;;4.60;99.90;;;;;;4972572;28;19910;-76
2022/12/02 12:46:20;;;;;;;;;;;4.50;99.90;;;;;;4975253;28;20103;-74
2022/12/02 12:48:46;;;;;;;;;;;4.30;99.90;;;;;;4974788;28;19968;-75
2022/12/02 12:51:11;;;;;;;;;;;4.30;99.90;;;;;;4976003;28;20005;-76
2022/12/02 12:53:37;;;;;;;;;;;4.30;99.90;;;;;;4975247;28;19914;-73
2022/12/02 12:56:02;;;;;;;;;;;4.30;99.90;;;;;;4976882;28;19913;-75
2022/12/02 12:58:28;;;;;;;;;;;4.30;99.90;;;;;;4976462;28;19914;-74
2022/12/02 13:00:54;;;;;;;;;;;4.30;99.90;;;;;;4977144;28;20319;-74
2022/12/02 13:03:19;;;;;;;;;;;4.30;99.90;;;;;;4976857;28;19910;-74
2022/12/02 13:05:45;;;;;;;;;;;4.40;99.90;;;;;;4978731;28;19934;-73
2022/12/02 13:08:11;;;;;;;;;;;4.40;99.90;;;;;;4977457;28;19981;-78
2022/12/02 13:10:36;;;;;;;;;;;4.30;99.90;;;;;;4976806;28;20343;-73
2022/12/02 13:13:02;;;;;;;;;;;4.30;99.90;;;;;;4964653;28;20421;-75
2022/12/02 13:15:28;;;;;;;;;;;4.30;99.90;;;;;;4969675;28;20211;-74
2022/12/02 13:17:53;;;;;;;;;;;4.30;99.90;;;;;;4972677;28;20310;-75
2022/12/02 13:20:19;;;;;;;;;;;4.30;99.90;;;;;;4972172;28;20343;-79
2022/12/02 13:22:45;;;;;;;;;;;4.30;99.90;;;;;;4986674;28;19914;-76
2022/12/02 13:25:11;;;;;;;;;;;4.40;99.90;;;;;;4971649;28;20319;-74
2022/12/02 13:27:37;;;;;;;;;;;4.50;99.90;;;;;;4972544;28;20013;-75
2022/12/02 13:30:03;;;;;;;;;;;4.50;99.90;;;;;;4969856;28;20390;-74
2022/12/02 13:32:29;;;;;;;;;;;4.50;99.90;;;;;;4972671;28;20363;-74
2022/12/02 13:34:54;;;;;;;;;;;4.50;99.90;;;;;;4971318;28;19965;-75
2022/12/02 13:37:20;;;;;;;;;;;4.60;99.90;;;;;;4968979;28;19961;-75
2022/12/02 13:39:45;;;;;;;;;;;4.60;99.90;;;;;;4968354;28;19968;-73
2022/12/02 13:42:11;;;;;;;;;;;4.50;99.90;;;;;;5004126;28;19946;-76
2022/12/02 13:44:36;;;;;;;;;;;4.50;99.90;;;;;;4969647;28;19957;-79
2022/12/02 13:47:03;;;;;;;;;;;4.50;99.90;;;;;;4971309;28;20339;-74
2022/12/02 13:49:28;;;;;;;;;;;4.60;99.90;;;;;;4971981;28;20230;-78
2022/12/02 13:51:56;;;;;;;;;;;4.50;99.90;;;;;;4969262;28;19914;-75
2022/12/02 13:54:21;;;;;;;;;;;4.40;99.90;;;;;;4970640;28;19969;-75
2022/12/02 13:56:47;;;;;;;;;;;4.40;99.90;;;;;;4970573;28;20302;-78
2022/12/02 13:59:12;;;;;;;;;;;4.30;99.90;;;;;;4970553;28;19922;-76
2022/12/02 14:01:38;;;;;;;;;;;4.20;99.90;;;;;;4971784;28;20379;-75
2022/12/02 14:04:03;;;;;;;;;;;4.20;99.90;;;;;;4971854;28;20079;-75
2022/12/02 14:06:29;;;;;;;;;;;4.10;99.90;;;;;;4965675;28;19914;-75
2022/12/02 14:08:54;;;;;;;;;;;4.10;99.90;;;;;;4971029;28;20048;-72
2022/12/02 14:11:20;;;;;;;;;;;4.00;99.90;;;;;;4987579;28;20343;-73
2022/12/02 14:13:45;;;;;;;;;;;4.10;99.90;;;;;;4977520;28;19918;-74
2022/12/02 14:16:11;;;;;;;;;;;4.00;99.90;;;;;;4973743;28;20382;-76
2022/12/02 14:18:36;;;;;;;;;;;4.10;99.90;;;;;;4975525;28;19918;-74
2022/12/02 14:21:02;;;;;;;;;;;4.10;99.90;;;;;;4976460;28;20166;-77
2022/12/02 14:23:27;;;;;;;;;;;4.20;99.90;;;;;;4983340;28;19980;-75
2022/12/02 14:25:53;;;;;;;;;;;4.20;99.90;;;;;;4974730;28;20283;-74
2022/12/02 14:28:18;;;;;;;;;;;4.20;99.90;;;;;;4974840;28;19922;-76
2022/12/02 14:30:44;;;;;;;;;;;4.20;99.90;;;;;;4971958;28;20312;-74